createdAt,value
2018-10-21T00:00:48.362Z,0.00
2018-10-21T00:01:48.340Z,0.00
2018-10-21T00:02:48.330Z,0.00
2018-10-21T00:03:48.402Z,0.00
2018-10-21T00:04:48.309Z,0.00
2018-10-21T00:05:48.297Z,0.00
2018-10-21T00:06:48.568Z,0.00
2018-10-21T00:07:48.299Z,0.00
2018-10-21T00:08:48.260Z,0.00
2018-10-21T00:09:48.308Z,0.00
2018-10-21T00:10:48.239Z,0.00
2018-10-21T00:11:48.242Z,0.00
2018-10-21T00:12:48.220Z,0.00
2018-10-21T00:13:48.497Z,0.00
2018-10-21T00:14:48.211Z,0.00
2018-10-21T00:15:48.248Z,0.00
2018-10-21T00:16:48.180Z,0.00
2018-10-21T00:17:48.163Z,0.00
2018-10-21T00:18:48.156Z,0.00
2018-10-21T00:19:48.293Z,0.00
2018-10-21T00:20:48.552Z,0.00
2018-10-21T00:21:48.199Z,0.00
2018-10-21T00:22:48.250Z,0.00
2018-10-21T00:23:49.166Z,0.00
2018-10-21T00:24:48.227Z,0.00
2018-10-21T00:25:48.079Z,0.00
2018-10-21T00:26:48.065Z,0.00
2018-10-21T00:27:48.581Z,0.00
2018-10-21T00:28:48.047Z,0.00
2018-10-21T00:29:48.090Z,0.00
2018-10-21T00:30:48.024Z,0.00
2018-10-21T00:31:48.013Z,0.00
2018-10-21T00:32:48.016Z,0.00
2018-10-21T00:33:48.038Z,0.00
2018-10-21T00:34:48.261Z,0.00
2018-10-21T00:35:47.968Z,0.00
2018-10-21T00:36:47.962Z,0.00
2018-10-21T00:37:48.547Z,0.00
2018-10-21T00:38:48.539Z,0.00
2018-10-21T00:39:47.969Z,0.00
2018-10-21T00:40:47.914Z,0.00
2018-10-21T00:41:48.212Z,0.00
2018-10-21T00:42:47.893Z,0.00
2018-10-21T00:43:47.898Z,0.00
2018-10-21T00:44:47.909Z,0.00
2018-10-21T00:45:47.934Z,0.00
2018-10-21T00:46:47.855Z,0.00
2018-10-21T00:47:47.838Z,0.00
2018-10-21T00:48:48.143Z,0.00
2018-10-21T00:49:47.823Z,0.00
2018-10-21T00:50:47.812Z,0.00
2018-10-21T00:51:47.838Z,0.00
2018-10-21T00:52:47.845Z,0.00
2018-10-21T00:53:47.778Z,0.00
2018-10-21T00:54:47.766Z,0.00
2018-10-21T00:55:48.037Z,0.00
2018-10-21T00:56:47.745Z,0.00
2018-10-21T00:57:47.789Z,0.00
2018-10-21T00:58:47.800Z,0.00
2018-10-21T00:59:47.708Z,0.00
2018-10-21T01:00:47.746Z,0.00
2018-10-21T01:01:47.708Z,0.00
2018-10-21T01:02:47.977Z,0.00
2018-10-21T01:03:47.727Z,0.00
2018-10-21T01:04:47.659Z,0.00
2018-10-21T01:05:47.668Z,0.00
2018-10-21T01:06:47.633Z,0.00
2018-10-21T01:07:47.644Z,0.00
2018-10-21T01:08:47.610Z,0.00
2018-10-21T01:09:47.938Z,0.00
2018-10-21T01:10:47.740Z,0.00
2018-10-21T01:11:47.577Z,0.00
2018-10-21T01:12:47.570Z,0.00
2018-10-21T01:13:47.595Z,0.00
2018-10-21T01:14:47.547Z,0.00
2018-10-21T01:15:47.575Z,0.00
2018-10-21T01:16:47.818Z,0.00
2018-10-21T01:17:47.534Z,0.00
2018-10-21T01:18:47.507Z,0.00
2018-10-21T01:19:47.489Z,0.00
2018-10-21T01:20:47.489Z,0.00
2018-10-21T01:21:47.764Z,0.00
2018-10-21T01:22:47.466Z,0.00
2018-10-21T01:23:47.736Z,0.00
2018-10-21T01:24:47.438Z,0.00
2018-10-21T01:25:47.431Z,0.00
2018-10-21T01:26:47.419Z,0.00
2018-10-21T01:27:47.444Z,0.00
2018-10-21T01:28:47.398Z,0.00
2018-10-21T01:29:47.400Z,0.00
2018-10-21T01:30:47.373Z,0.00
2018-10-21T01:31:47.358Z,0.00
2018-10-21T01:32:47.360Z,0.00
2018-10-21T01:33:47.378Z,0.00
2018-10-21T01:34:47.327Z,0.00
2018-10-21T01:35:47.325Z,0.00
2018-10-21T01:36:47.702Z,0.00
2018-10-21T01:37:47.335Z,0.00
2018-10-21T01:38:47.311Z,0.00
2018-10-21T01:39:47.570Z,0.00
2018-10-21T01:40:47.273Z,0.00
2018-10-21T01:41:47.253Z,0.00
2018-10-21T01:42:47.530Z,0.00
2018-10-21T01:43:47.230Z,0.00
2018-10-21T01:44:47.236Z,0.00
2018-10-21T01:45:47.252Z,0.00
2018-10-21T01:46:47.197Z,0.00
2018-10-21T01:47:47.186Z,0.00
2018-10-21T01:48:47.179Z,0.00
2018-10-21T01:49:47.163Z,0.00
2018-10-21T01:50:47.160Z,0.00
2018-10-21T01:51:47.200Z,0.00
2018-10-21T01:52:47.143Z,0.00
2018-10-21T01:53:47.123Z,0.00
2018-10-21T01:54:47.401Z,0.00
2018-10-21T01:55:47.111Z,0.00
2018-10-21T01:56:47.091Z,0.00
2018-10-21T01:57:47.145Z,0.00
2018-10-21T01:58:47.089Z,0.00
2018-10-21T01:59:47.059Z,0.00
2018-10-21T02:02:19.215Z,0.00
2018-10-21T02:03:19.449Z,0.00
2018-10-21T02:04:19.172Z,0.00
2018-10-21T02:05:19.159Z,0.00
2018-10-21T02:06:19.436Z,0.00
2018-10-21T02:07:19.137Z,0.00
2018-10-21T02:08:19.126Z,0.00
2018-10-21T02:09:19.240Z,0.00
2018-10-21T02:10:19.826Z,0.00
2018-10-21T02:11:19.090Z,0.00
2018-10-21T02:12:19.562Z,0.00
2018-10-21T02:13:19.070Z,0.00
2018-10-21T02:14:19.228Z,0.00
2018-10-21T02:15:19.200Z,0.00
2018-10-21T02:16:19.043Z,0.00
2018-10-21T02:17:19.030Z,0.00
2018-10-21T02:18:19.020Z,0.00
2018-10-21T02:19:19.023Z,0.00
2018-10-21T02:20:18.996Z,0.00
2018-10-21T02:21:19.038Z,0.00
2018-10-21T02:22:18.989Z,0.00
2018-10-21T02:23:18.967Z,0.00
2018-10-21T02:24:19.345Z,0.00
2018-10-21T02:25:18.950Z,0.00
2018-10-21T02:26:19.698Z,0.00
2018-10-21T02:27:18.975Z,0.00
2018-10-21T02:28:19.821Z,0.00
2018-10-21T02:29:18.901Z,0.00
2018-10-21T02:30:18.889Z,0.00
2018-10-21T02:31:19.171Z,0.00
2018-10-21T02:32:18.874Z,0.00
2018-10-21T02:33:19.030Z,0.00
2018-10-21T02:34:18.850Z,0.00
2018-10-21T02:35:18.840Z,0.00
2018-10-21T02:36:18.928Z,0.00
2018-10-21T02:37:18.824Z,0.00
2018-10-21T02:38:19.132Z,0.00
2018-10-21T02:39:18.938Z,0.00
2018-10-21T02:40:18.792Z,0.00
2018-10-21T02:41:18.777Z,0.00
2018-10-21T02:42:18.768Z,0.00
2018-10-21T02:43:18.756Z,0.00
2018-10-21T02:44:18.743Z,0.00
2018-10-21T02:45:19.213Z,0.00
2018-10-21T02:46:18.723Z,0.00
2018-10-21T02:47:18.726Z,0.00
2018-10-21T02:48:18.702Z,0.00
2018-10-21T02:49:18.699Z,0.00
2018-10-21T02:50:18.688Z,0.00
2018-10-21T02:51:18.832Z,0.00
2018-10-21T02:52:18.961Z,0.00
2018-10-21T02:53:18.648Z,0.00
2018-10-21T02:54:18.641Z,0.00
2018-10-21T02:55:18.630Z,0.00
2018-10-21T02:56:18.716Z,0.00
2018-10-21T02:57:18.781Z,0.00
2018-10-21T02:58:18.669Z,0.00
2018-10-21T02:59:19.089Z,0.00
2018-10-21T03:00:18.661Z,0.00
2018-10-21T03:01:18.618Z,0.00
2018-10-21T03:02:18.673Z,0.00
2018-10-21T03:03:18.777Z,0.00
2018-10-21T03:04:18.537Z,0.00
2018-10-21T03:05:18.524Z,0.00
2018-10-21T03:06:18.844Z,0.00
2018-10-21T03:07:18.504Z,0.00
2018-10-21T03:08:18.491Z,0.00
2018-10-21T03:09:18.622Z,0.00
2018-10-21T03:10:18.469Z,0.00
2018-10-21T03:11:18.461Z,0.00
2018-10-21T03:12:18.460Z,0.00
2018-10-21T03:13:18.755Z,0.00
2018-10-21T03:14:18.433Z,0.00
2018-10-21T03:15:18.613Z,0.00
2018-10-21T03:16:18.417Z,0.00
2018-10-21T03:17:18.396Z,0.00
2018-10-21T03:18:18.479Z,0.00
2018-10-21T03:19:18.379Z,0.00
2018-10-21T03:20:18.652Z,0.00
2018-10-21T03:21:18.517Z,0.00
2018-10-21T03:22:18.346Z,0.00
2018-10-21T03:23:18.344Z,0.00
2018-10-21T03:24:18.342Z,0.00
2018-10-21T03:25:18.312Z,0.00
2018-10-21T03:26:18.303Z,0.00
2018-10-21T03:27:18.730Z,0.00
2018-10-21T03:28:18.285Z,0.00
2018-10-21T03:29:18.274Z,0.00
2018-10-21T03:30:18.265Z,0.00
2018-10-21T03:31:18.254Z,0.00
2018-10-21T03:32:18.245Z,0.00
2018-10-21T03:33:18.568Z,0.00
2018-10-21T03:34:18.522Z,0.00
2018-10-21T03:35:18.214Z,0.00
2018-10-21T03:36:18.200Z,0.00
2018-10-21T03:37:18.189Z,0.00
2018-10-21T03:38:18.181Z,0.00
2018-10-21T03:39:18.220Z,0.00
2018-10-21T03:40:18.236Z,0.00
2018-10-21T03:41:18.435Z,0.00
2018-10-21T03:42:18.139Z,0.00
2018-10-21T03:43:18.135Z,0.00
2018-10-21T03:44:18.116Z,0.00
2018-10-21T03:45:18.172Z,0.00
2018-10-21T03:46:18.174Z,0.00
2018-10-21T03:47:18.086Z,0.00
2018-10-21T03:48:18.384Z,0.00
2018-10-21T03:49:18.070Z,0.00
2018-10-21T03:50:18.056Z,0.00
2018-10-21T03:51:18.086Z,0.00
2018-10-21T03:52:18.137Z,0.00
2018-10-21T03:53:18.026Z,0.00
2018-10-21T03:54:18.011Z,0.00
2018-10-21T03:55:18.303Z,0.00
2018-10-21T03:56:18.809Z,0.00
2018-10-21T03:57:18.023Z,0.00
2018-10-21T03:58:17.975Z,0.00
2018-10-21T03:59:17.959Z,0.00
2018-10-21T04:00:17.951Z,0.00
2018-10-21T04:01:17.948Z,0.00
2018-10-21T04:02:18.028Z,0.00
2018-10-21T04:03:17.990Z,0.00
2018-10-21T04:04:18.003Z,0.00
2018-10-21T04:05:17.901Z,0.00
2018-10-21T04:06:17.883Z,0.00
2018-10-21T04:07:17.878Z,0.00
2018-10-21T04:08:18.146Z,0.00
2018-10-21T04:09:17.907Z,0.00
2018-10-21T04:10:17.937Z,0.00
2018-10-21T04:11:17.835Z,0.00
2018-10-21T04:12:17.824Z,0.00
2018-10-21T04:13:17.817Z,0.00
2018-10-21T04:14:17.802Z,0.00
2018-10-21T04:15:18.124Z,0.00
2018-10-21T04:16:17.857Z,0.00
2018-10-21T04:17:17.867Z,0.00
2018-10-21T04:18:17.759Z,0.00
2018-10-21T04:19:17.752Z,0.00
2018-10-21T04:20:17.737Z,0.00
2018-10-21T04:21:18.029Z,0.00
2018-10-21T04:22:18.002Z,0.00
2018-10-21T04:23:17.711Z,0.00
2018-10-21T04:24:17.699Z,0.00
2018-10-21T04:25:17.688Z,0.00
2018-10-21T04:26:17.680Z,0.00
2018-10-21T04:27:17.709Z,0.00
2018-10-21T04:28:17.848Z,0.00
2018-10-21T04:29:17.956Z,0.00
2018-10-21T04:30:17.633Z,0.00
2018-10-21T04:31:17.621Z,0.00
2018-10-21T04:32:17.612Z,0.00
2018-10-21T04:33:17.643Z,0.00
2018-10-21T04:34:17.636Z,0.00
2018-10-21T04:35:17.582Z,0.00
2018-10-21T04:36:17.859Z,0.00
2018-10-21T04:37:17.559Z,0.00
2018-10-21T04:38:17.547Z,0.00
2018-10-21T04:39:17.880Z,0.00
2018-10-21T04:40:17.612Z,0.00
2018-10-21T04:41:17.515Z,0.00
2018-10-21T04:42:17.504Z,0.00
2018-10-21T04:43:17.774Z,0.00
2018-10-21T04:44:17.486Z,0.00
2018-10-21T04:45:17.626Z,0.00
2018-10-21T04:46:17.599Z,0.00
2018-10-21T04:47:17.456Z,0.00
2018-10-21T04:48:17.452Z,0.00
2018-10-21T04:49:17.438Z,0.00
2018-10-21T04:50:17.719Z,0.00
2018-10-21T04:51:17.462Z,0.00
2018-10-21T04:52:17.508Z,0.00
2018-10-21T04:53:17.391Z,0.00
2018-10-21T04:54:17.382Z,0.00
2018-10-21T04:55:17.372Z,0.00
2018-10-21T04:56:17.364Z,0.00
2018-10-21T04:57:17.824Z,0.00
2018-10-21T04:58:17.554Z,0.00
2018-10-21T04:59:17.327Z,0.00
2018-10-21T05:00:17.321Z,0.00
2018-10-21T05:01:17.306Z,0.00
2018-10-21T05:02:17.294Z,0.00
2018-10-21T05:03:17.326Z,0.00
2018-10-21T05:04:17.686Z,0.00
2018-10-21T05:05:17.265Z,0.00
2018-10-21T05:06:17.255Z,0.00
2018-10-21T05:07:17.278Z,0.00
2018-10-21T05:08:17.235Z,0.00
2018-10-21T05:09:17.265Z,0.00
2018-10-21T05:10:17.285Z,0.00
2018-10-21T05:11:17.500Z,0.00
2018-10-21T05:12:17.190Z,0.00
2018-10-21T05:13:17.180Z,0.00
2018-10-21T05:14:17.173Z,0.00
2018-10-21T05:15:17.544Z,0.00
2018-10-21T05:16:17.267Z,0.00
2018-10-21T05:17:17.138Z,0.00
2018-10-21T05:18:17.603Z,0.00
2018-10-21T05:19:17.115Z,0.00
2018-10-21T05:20:17.116Z,0.00
2018-10-21T05:21:17.140Z,0.00
2018-10-21T05:22:17.835Z,0.00
2018-10-21T05:23:17.073Z,0.00
2018-10-21T05:24:17.061Z,0.00
2018-10-21T05:25:17.346Z,0.00
2018-10-21T05:26:17.041Z,0.00
2018-10-21T05:27:17.076Z,0.00
2018-10-21T05:28:17.129Z,0.00
2018-10-21T05:29:17.006Z,0.00
2018-10-21T05:30:16.996Z,0.00
2018-10-21T05:31:16.983Z,0.00
2018-10-21T05:32:16.976Z,0.00
2018-10-21T05:33:17.047Z,0.00
2018-10-21T05:34:17.004Z,0.00
2018-10-21T05:35:17.792Z,0.00
2018-10-21T05:36:17.032Z,0.00
2018-10-21T05:37:16.928Z,0.00
2018-10-21T05:38:18.082Z,0.00
2018-10-21T05:39:17.923Z,0.00
2018-10-21T05:40:16.986Z,0.00
2018-10-21T05:41:16.876Z,0.00
2018-10-21T05:42:16.878Z,0.00
2018-10-21T05:43:16.855Z,0.00
2018-10-21T05:44:16.855Z,0.00
2018-10-21T05:45:17.266Z,0.00
2018-10-21T05:46:16.895Z,0.00
2018-10-21T05:47:17.906Z,0.00
2018-10-21T05:48:16.807Z,0.00
2018-10-21T05:49:16.795Z,0.00
2018-10-21T05:50:16.787Z,0.00
2018-10-21T05:51:16.907Z,0.00
2018-10-21T05:52:17.234Z,0.00
2018-10-21T05:53:16.754Z,0.00
2018-10-21T05:54:16.744Z,0.00
2018-10-21T05:55:16.734Z,0.00
2018-10-21T05:56:16.722Z,0.00
2018-10-21T05:57:16.836Z,0.00
2018-10-21T05:58:16.766Z,0.00
2018-10-21T05:59:17.062Z,0.00
2018-10-21T06:00:16.676Z,0.00
2018-10-21T06:01:16.667Z,0.00
2018-10-21T06:02:16.654Z,0.00
2018-10-21T06:03:16.896Z,0.00
2018-10-21T06:04:16.695Z,0.00
2018-10-21T06:05:16.621Z,0.00
2018-10-21T06:06:17.109Z,0.00
2018-10-21T06:07:16.601Z,0.00
2018-10-21T06:08:16.592Z,0.00
2018-10-21T06:09:16.824Z,0.00
2018-10-21T06:10:16.741Z,0.00
2018-10-21T06:11:16.560Z,0.00
2018-10-21T06:12:16.549Z,0.00
2018-10-21T06:13:17.925Z,5.62
2018-10-21T06:14:16.527Z,5.62
2018-10-21T06:15:16.596Z,5.62
2018-10-21T06:16:16.568Z,5.62
2018-10-21T06:17:16.494Z,5.62
2018-10-21T06:18:16.491Z,5.62
2018-10-21T06:19:16.473Z,5.62
2018-10-21T06:20:16.785Z,5.62
2018-10-21T06:21:16.578Z,5.62
2018-10-21T06:22:16.522Z,5.62
2018-10-21T06:23:16.432Z,5.62
2018-10-21T06:24:16.423Z,5.62
2018-10-21T06:25:16.408Z,5.62
2018-10-21T06:26:16.396Z,11.25
2018-10-21T06:27:16.986Z,11.25
2018-10-21T06:28:16.375Z,11.25
2018-10-21T06:29:16.368Z,11.25
2018-10-21T06:30:16.353Z,16.88
2018-10-21T06:31:16.344Z,16.88
2018-10-21T06:32:16.335Z,16.88
2018-10-21T06:33:16.520Z,16.88
2018-10-21T06:34:16.898Z,16.88
2018-10-21T06:35:16.305Z,22.50
2018-10-21T06:36:16.296Z,22.50
2018-10-21T06:37:16.284Z,22.50
2018-10-21T06:38:16.271Z,22.50
2018-10-21T06:39:16.428Z,22.50
2018-10-21T06:40:16.247Z,28.12
2018-10-21T06:41:16.336Z,28.12
2018-10-21T06:42:16.228Z,28.12
2018-10-21T06:43:16.216Z,28.12
2018-10-21T06:44:16.204Z,28.12
2018-10-21T06:45:16.603Z,28.12
2018-10-21T06:46:16.743Z,28.12
2018-10-21T06:47:16.178Z,33.75
2018-10-21T06:48:16.184Z,33.75
2018-10-21T06:49:16.154Z,33.75
2018-10-21T06:50:16.184Z,33.75
2018-10-21T06:51:16.255Z,39.38
2018-10-21T06:52:16.126Z,39.38
2018-10-21T06:53:16.116Z,39.38
2018-10-21T06:54:16.127Z,39.38
2018-10-21T06:55:16.138Z,39.38
2018-10-21T06:56:16.115Z,39.38
2018-10-21T06:57:16.408Z,45.00
2018-10-21T06:58:16.343Z,45.00
2018-10-21T06:59:16.048Z,45.00
2018-10-21T07:00:16.042Z,45.00
2018-10-21T07:01:16.026Z,45.00
2018-10-21T07:02:16.016Z,50.62
2018-10-21T07:03:16.091Z,50.62
2018-10-21T07:04:16.147Z,50.62
2018-10-21T07:05:18.383Z,50.62
2018-10-21T07:06:15.974Z,50.62
2018-10-21T07:07:15.968Z,56.25
2018-10-21T07:08:15.955Z,56.25
2018-10-21T07:09:16.449Z,56.25
2018-10-21T07:10:16.179Z,56.25
2018-10-21T07:11:16.081Z,61.88
2018-10-21T07:12:17.445Z,61.88
2018-10-21T07:13:15.924Z,61.88
2018-10-21T07:14:15.931Z,61.88
2018-10-21T07:15:16.028Z,61.88
2018-10-21T07:16:15.898Z,67.50
2018-10-21T07:17:15.856Z,67.50
2018-10-21T07:18:15.850Z,67.50
2018-10-21T07:19:16.285Z,67.50
2018-10-21T07:20:15.834Z,67.50
2018-10-21T07:21:15.916Z,67.50
2018-10-21T07:22:15.872Z,67.50
2018-10-21T07:23:15.795Z,67.50
2018-10-21T07:24:15.785Z,73.12
2018-10-21T07:25:15.775Z,73.12
2018-10-21T07:26:16.098Z,73.12
2018-10-21T07:27:15.824Z,78.75
2018-10-21T07:28:15.810Z,78.75
2018-10-21T07:29:15.738Z,106.88
2018-10-21T07:30:15.731Z,146.25
2018-10-21T07:31:15.710Z,174.38
2018-10-21T07:32:16.101Z,191.25
2018-10-21T07:33:15.773Z,196.88
2018-10-21T07:34:15.782Z,196.88
2018-10-21T07:35:15.669Z,191.25
2018-10-21T07:36:15.678Z,191.25
2018-10-21T07:37:15.651Z,185.62
2018-10-21T07:38:15.642Z,163.12
2018-10-21T07:39:16.354Z,140.62
2018-10-21T07:40:15.711Z,112.50
2018-10-21T07:41:15.623Z,106.88
2018-10-21T07:42:15.609Z,106.88
2018-10-21T07:43:15.619Z,95.62
2018-10-21T07:44:15.585Z,95.62
2018-10-21T07:45:15.801Z,95.62
2018-10-21T07:46:16.799Z,95.62
2018-10-21T07:47:15.548Z,95.62
2018-10-21T07:48:15.537Z,95.62
2018-10-21T07:49:15.600Z,101.25
2018-10-21T07:50:15.511Z,101.25
2018-10-21T07:51:15.573Z,106.88
2018-10-21T07:52:15.596Z,106.88
2018-10-21T07:53:15.972Z,112.50
2018-10-21T07:54:15.477Z,112.50
2018-10-21T07:55:15.545Z,106.88
2018-10-21T07:56:15.557Z,112.50
2018-10-21T07:57:15.573Z,112.50
2018-10-21T07:58:15.538Z,118.12
2018-10-21T07:59:15.415Z,123.75
2018-10-21T08:00:15.755Z,129.38
2018-10-21T08:01:15.461Z,135.00
2018-10-21T08:02:15.380Z,135.00
2018-10-21T08:03:15.444Z,140.62
2018-10-21T08:04:15.430Z,140.62
2018-10-21T08:05:15.632Z,140.62
2018-10-21T08:06:15.347Z,140.62
2018-10-21T08:07:15.771Z,140.62
2018-10-21T08:08:15.315Z,140.62
2018-10-21T08:09:15.668Z,146.25
2018-10-21T08:10:16.338Z,140.62
2018-10-21T08:11:15.284Z,135.00
2018-10-21T08:12:15.273Z,129.38
2018-10-21T08:13:15.519Z,123.75
2018-10-21T08:14:15.588Z,118.12
2018-10-21T08:15:15.463Z,112.50
2018-10-21T08:16:32.799Z,112.50
2018-10-21T08:17:15.219Z,106.88
2018-10-21T08:18:15.209Z,106.88
2018-10-21T08:19:15.200Z,106.88
2018-10-21T08:20:15.188Z,106.88
2018-10-21T08:21:15.690Z,106.88
2018-10-21T08:22:15.260Z,106.88
2018-10-21T08:23:15.160Z,112.50
2018-10-21T08:24:15.145Z,112.50
2018-10-21T08:25:15.150Z,112.50
2018-10-21T08:26:15.811Z,118.12
2018-10-21T08:27:16.087Z,118.12
2018-10-21T08:28:15.498Z,118.12
2018-10-21T08:29:15.144Z,118.12
2018-10-21T08:30:15.084Z,123.75
2018-10-21T08:31:15.073Z,123.75
2018-10-21T08:32:15.063Z,123.75
2018-10-21T08:33:15.232Z,123.75
2018-10-21T08:34:26.584Z,123.75
2018-10-21T08:35:15.461Z,118.12
2018-10-21T08:36:15.835Z,118.12
2018-10-21T08:37:15.008Z,118.12
2018-10-21T08:38:14.998Z,123.75
2018-10-21T08:39:15.113Z,123.75
2018-10-21T08:40:15.024Z,129.38
2018-10-21T08:41:14.969Z,123.75
2018-10-21T08:42:15.287Z,129.38
2018-10-21T08:43:15.831Z,146.25
2018-10-21T08:44:14.934Z,146.25
2018-10-21T08:45:15.176Z,146.25
2018-10-21T08:46:14.997Z,129.38
2018-10-21T08:47:14.900Z,129.38
2018-10-21T08:48:15.792Z,129.38
2018-10-21T08:49:15.447Z,118.12
2018-10-21T08:50:15.791Z,118.12
2018-10-21T08:51:15.796Z,118.12
2018-10-21T08:52:15.866Z,118.12
2018-10-21T08:53:14.837Z,123.75
2018-10-21T08:54:14.827Z,118.12
2018-10-21T08:55:14.988Z,118.12
2018-10-21T08:56:15.120Z,123.75
2018-10-21T08:57:15.718Z,123.75
2018-10-21T08:58:14.860Z,129.38
2018-10-21T08:59:15.791Z,129.38
2018-10-21T09:00:14.761Z,129.38
2018-10-21T09:01:28.516Z,129.38
2018-10-21T09:02:14.785Z,135.00
2018-10-21T09:03:15.025Z,135.00
2018-10-21T09:04:14.808Z,135.00
2018-10-21T09:05:14.726Z,135.00
2018-10-21T09:06:14.719Z,135.00
2018-10-21T09:07:14.782Z,135.00
2018-10-21T09:08:14.694Z,140.62
2018-10-21T09:09:14.945Z,140.62
2018-10-21T09:10:14.777Z,140.62
2018-10-21T09:11:14.657Z,140.62
2018-10-21T09:12:14.720Z,140.62
2018-10-21T09:13:14.790Z,146.25
2018-10-21T09:14:15.188Z,146.25
2018-10-21T09:15:14.900Z,146.25
2018-10-21T09:16:15.675Z,146.25
2018-10-21T09:17:15.138Z,146.25
2018-10-21T09:18:15.417Z,146.25
2018-10-21T09:19:14.696Z,146.25
2018-10-21T09:20:14.560Z,146.25
2018-10-21T09:21:15.037Z,146.25
2018-10-21T09:22:14.606Z,151.88
2018-10-21T09:23:14.560Z,151.88
2018-10-21T09:24:14.604Z,151.88
2018-10-21T09:25:14.549Z,151.88
2018-10-21T09:26:15.487Z,151.88
2018-10-21T09:27:14.743Z,157.50
2018-10-21T09:28:15.079Z,157.50
2018-10-21T09:29:14.486Z,157.50
2018-10-21T09:30:14.455Z,157.50
2018-10-21T09:31:14.511Z,163.12
2018-10-21T09:32:14.619Z,163.12
2018-10-21T09:33:14.642Z,163.12
2018-10-21T09:34:14.472Z,163.12
2018-10-21T09:35:15.077Z,163.12
2018-10-21T09:36:14.404Z,163.12
2018-10-21T09:37:14.470Z,163.12
2018-10-21T09:38:14.410Z,168.75
2018-10-21T09:39:14.590Z,168.75
2018-10-21T09:40:14.531Z,168.75
2018-10-21T09:41:14.368Z,168.75
2018-10-21T09:42:14.961Z,168.75
2018-10-21T09:43:14.938Z,174.38
2018-10-21T09:44:14.744Z,174.38
2018-10-21T09:45:14.493Z,174.38
2018-10-21T09:46:14.390Z,174.38
2018-10-21T09:47:14.351Z,180.00
2018-10-21T09:48:14.597Z,180.00
2018-10-21T09:49:14.863Z,180.00
2018-10-21T09:50:14.514Z,180.00
2018-10-21T09:51:14.353Z,185.62
2018-10-21T09:52:14.348Z,185.62
2018-10-21T09:53:16.922Z,185.62
2018-10-21T09:54:14.900Z,185.62
2018-10-21T09:55:14.274Z,185.62
2018-10-21T09:56:14.505Z,185.62
2018-10-21T09:57:14.292Z,185.62
2018-10-21T09:58:14.326Z,185.62
2018-10-21T09:59:14.337Z,185.62
2018-10-21T10:00:14.274Z,185.62
2018-10-21T10:01:14.979Z,185.62
2018-10-21T10:02:14.914Z,185.62
2018-10-21T10:03:14.261Z,185.62
2018-10-21T10:04:14.216Z,185.62
2018-10-21T10:05:14.237Z,185.62
2018-10-21T10:06:14.199Z,185.62
2018-10-21T10:07:15.239Z,185.62
2018-10-21T10:08:14.472Z,185.62
2018-10-21T10:09:14.316Z,185.62
2018-10-21T10:10:14.246Z,185.62
2018-10-21T10:11:14.049Z,185.62
2018-10-21T10:12:14.003Z,191.25
2018-10-21T10:13:15.028Z,191.25
2018-10-21T10:14:14.110Z,191.25
2018-10-21T10:15:15.364Z,191.25
2018-10-21T10:16:14.029Z,196.88
2018-10-21T10:17:13.985Z,202.50
2018-10-21T10:18:13.956Z,196.88
2018-10-21T10:19:14.144Z,202.50
2018-10-21T10:20:13.984Z,202.50
2018-10-21T10:21:15.314Z,196.88
2018-10-21T10:22:16.516Z,196.88
2018-10-21T10:23:13.977Z,196.88
2018-10-21T10:24:14.089Z,202.50
2018-10-21T10:25:14.000Z,202.50
2018-10-21T10:26:14.921Z,202.50
2018-10-21T10:27:15.892Z,202.50
2018-10-21T10:28:14.029Z,208.12
2018-10-21T10:29:14.223Z,208.12
2018-10-21T10:30:13.956Z,213.75
2018-10-21T10:31:13.949Z,213.75
2018-10-21T10:32:14.026Z,213.75
2018-10-21T10:33:14.099Z,219.38
2018-10-21T10:34:13.918Z,219.38
2018-10-21T10:35:13.929Z,219.38
2018-10-21T10:36:13.872Z,225.00
2018-10-21T10:37:14.036Z,230.62
2018-10-21T10:38:14.155Z,230.62
2018-10-21T10:39:13.847Z,236.25
2018-10-21T10:40:15.556Z,236.25
2018-10-21T10:41:14.320Z,236.25
2018-10-21T10:42:14.082Z,236.25
2018-10-21T10:43:13.731Z,230.62
2018-10-21T10:44:13.681Z,236.25
2018-10-21T10:45:15.376Z,236.25
2018-10-21T10:46:13.960Z,236.25
2018-10-21T10:47:13.882Z,236.25
2018-10-21T10:48:14.153Z,236.25
2018-10-21T10:49:15.956Z,236.25
2018-10-21T10:50:15.572Z,236.25
2018-10-21T10:51:14.363Z,241.88
2018-10-21T10:52:13.719Z,241.88
2018-10-21T10:53:13.705Z,236.25
2018-10-21T10:54:14.418Z,236.25
2018-10-21T10:55:14.735Z,241.88
2018-10-21T10:56:14.343Z,236.25
2018-10-21T10:57:13.870Z,236.25
2018-10-21T10:58:13.556Z,241.88
2018-10-21T10:59:13.715Z,236.25
2018-10-21T11:00:14.224Z,241.88
2018-10-21T11:01:13.769Z,258.75
2018-10-21T11:02:13.627Z,253.12
2018-10-21T11:03:13.775Z,258.75
2018-10-21T11:04:13.652Z,270.00
2018-10-21T11:05:13.570Z,281.25
2018-10-21T11:06:13.574Z,303.75
2018-10-21T11:07:14.040Z,309.38
2018-10-21T11:08:13.598Z,585.00
2018-10-21T11:09:13.701Z,1260.00
2018-10-21T11:10:15.101Z,1704.38
2018-10-21T11:11:13.480Z,1693.12
2018-10-21T11:12:14.052Z,1771.88
2018-10-21T11:13:13.649Z,1906.88
2018-10-21T11:14:13.816Z,1935.00
2018-10-21T11:15:15.366Z,1901.25
2018-10-21T11:16:13.737Z,1929.38
2018-10-21T11:17:13.330Z,1923.75
2018-10-21T11:18:13.484Z,1929.38
2018-10-21T11:19:15.887Z,1980.00
2018-10-21T11:20:14.357Z,2047.50
2018-10-21T11:21:13.719Z,2030.62
2018-10-21T11:22:15.098Z,2047.50
2018-10-21T11:23:13.391Z,2019.38
2018-10-21T11:24:13.273Z,2047.50
2018-10-21T11:25:13.677Z,2064.38
2018-10-21T11:26:13.230Z,2008.12
2018-10-21T11:27:13.947Z,1963.12
2018-10-21T11:28:15.393Z,1906.88
2018-10-21T11:29:13.293Z,1974.38
2018-10-21T11:30:14.422Z,2058.75
2018-10-21T11:31:14.914Z,2070.00
2018-10-21T11:32:14.033Z,2053.12
2018-10-21T11:33:21.846Z,1996.88
2018-10-21T11:34:14.458Z,1991.25
2018-10-21T11:35:15.357Z,1946.25
2018-10-21T11:36:13.931Z,1946.25
2018-10-21T11:37:19.257Z,1895.62
2018-10-21T11:38:14.395Z,1721.25
2018-10-21T11:39:14.701Z,1721.25
2018-10-21T11:40:13.525Z,1074.38
2018-10-21T11:42:01.800Z,1648.12
2018-10-21T11:42:19.403Z,1878.75
2018-10-21T11:43:16.068Z,1929.38
2018-10-21T11:44:25.893Z,1895.62
2018-10-21T11:45:17.453Z,1816.88
2018-10-21T11:46:32.989Z,1732.50
2018-10-21T11:48:24.328Z,1777.50
2018-10-21T11:49:23.868Z,1794.38
2018-10-21T11:50:23.857Z,1636.88
2018-10-21T11:51:23.721Z,1687.50
2018-10-21T11:52:24.697Z,1800.00
2018-10-21T11:57:17.859Z,1878.75
2018-10-21T11:58:18.020Z,1738.12
2018-10-21T11:59:17.877Z,1822.50
2018-10-21T12:00:17.906Z,2064.38
2018-10-21T12:01:17.274Z,2075.62
2018-10-21T12:02:16.891Z,1906.88
2018-10-21T12:03:17.278Z,1833.75
2018-10-21T12:04:16.951Z,1974.38
2018-10-21T12:05:17.719Z,2070.00
2018-10-21T12:06:17.722Z,1946.25
2018-10-21T12:07:16.959Z,1800.00
2018-10-21T12:08:16.866Z,1777.50
2018-10-21T12:09:17.688Z,1968.75
2018-10-21T12:10:16.898Z,1985.62
2018-10-21T12:11:17.732Z,1923.75
2018-10-21T12:12:16.787Z,1766.25
2018-10-21T12:13:18.755Z,1108.12
2018-10-21T12:14:16.764Z,1546.88
2018-10-21T12:15:17.757Z,1591.88
2018-10-21T12:16:17.336Z,1732.50
2018-10-21T12:17:16.747Z,1653.75
2018-10-21T12:18:16.784Z,1620.00
2018-10-21T12:19:16.865Z,1507.50
2018-10-21T12:20:16.761Z,1501.88
2018-10-21T12:21:17.755Z,1417.50
2018-10-21T12:22:16.803Z,1125.00
2018-10-21T12:23:17.147Z,725.62
2018-10-21T12:24:17.753Z,286.88
2018-10-21T12:25:16.947Z,270.00
2018-10-21T12:26:17.730Z,253.12
2018-10-21T12:27:17.149Z,264.38
2018-10-21T12:28:17.871Z,264.38
2018-10-21T12:29:17.830Z,281.25
2018-10-21T12:30:17.327Z,292.50
2018-10-21T12:31:16.710Z,286.88
2018-10-21T12:32:16.581Z,270.00
2018-10-21T12:33:16.715Z,264.38
2018-10-21T12:34:16.685Z,219.38
2018-10-21T12:35:16.719Z,208.12
2018-10-21T12:36:16.610Z,208.12
2018-10-21T12:37:17.049Z,225.00
2018-10-21T12:38:16.603Z,236.25
2018-10-21T12:39:16.852Z,241.88
2018-10-21T12:40:16.761Z,241.88
2018-10-21T12:41:17.570Z,219.38
2018-10-21T12:42:16.637Z,208.12
2018-10-21T12:43:16.713Z,213.75
2018-10-21T12:44:16.871Z,213.75
2018-10-21T12:45:17.000Z,219.38
2018-10-21T12:46:16.697Z,225.00
2018-10-21T12:47:16.575Z,219.38
2018-10-21T12:48:16.421Z,225.00
2018-10-21T12:49:17.274Z,230.62
2018-10-21T12:50:16.385Z,230.62
2018-10-21T12:51:17.043Z,236.25
2018-10-21T12:52:16.544Z,236.25
2018-10-21T12:53:16.681Z,236.25
2018-10-21T12:54:17.825Z,241.88
2018-10-21T12:55:16.426Z,230.62
2018-10-21T12:56:16.762Z,225.00
2018-10-21T12:57:17.599Z,219.38
2018-10-21T12:58:16.885Z,208.12
2018-10-21T12:59:16.479Z,196.88